sensor_id;sensor_type;location;lat;lon;timestamp;P1;durP1;ratioP1;P2;durP2;ratioP2
81378;SDS011;70830;42.290;-71.354;2024-01-30T00:02:14;3.92;;;3.72;;
81378;SDS011;70830;42.290;-71.354;2024-01-30T00:04:39;3.90;;;3.70;;
81378;SDS011;70830;42.290;-71.354;2024-01-30T00:07:05;3.90;;;3.70;;
81378;SDS011;70830;42.290;-71.354;2024-01-30T00:09:31;4.05;;;3.85;;
81378;SDS011;70830;42.290;-71.354;2024-01-30T00:11:57;4.00;;;3.80;;
81378;SDS011;70830;42.290;-71.354;2024-01-30T00:14:23;4.13;;;3.92;;
81378;SDS011;70830;42.290;-71.354;2024-01-30T00:16:50;3.88;;;3.67;;
81378;SDS011;70830;42.290;-71.354;2024-01-30T00:19:17;3.90;;;3.70;;
81378;SDS011;70830;42.290;-71.354;2024-01-30T00:21:43;3.90;;;3.70;;
81378;SDS011;70830;42.290;-71.354;2024-01-30T00:24:09;3.80;;;3.60;;
81378;SDS011;70830;42.290;-71.354;2024-01-30T00:26:35;4.10;;;3.90;;
81378;SDS011;70830;42.290;-71.354;2024-01-30T00:29:00;4.10;;;3.90;;
81378;SDS011;70830;42.290;-71.354;2024-01-30T00:31:27;3.78;;;3.58;;
81378;SDS011;70830;42.290;-71.354;2024-01-30T00:33:53;3.90;;;3.70;;
81378;SDS011;70830;42.290;-71.354;2024-01-30T00:36:18;3.90;;;3.70;;
81378;SDS011;70830;42.290;-71.354;2024-01-30T00:38:44;4.00;;;3.80;;
81378;SDS011;70830;42.290;-71.354;2024-01-30T00:41:10;4.10;;;3.90;;
81378;SDS011;70830;42.290;-71.354;2024-01-30T00:43:36;4.10;;;3.90;;
81378;SDS011;70830;42.290;-71.354;2024-01-30T00:46:02;4.15;;;3.95;;
81378;SDS011;70830;42.290;-71.354;2024-01-30T00:48:28;4.10;;;3.90;;
81378;SDS011;70830;42.290;-71.354;2024-01-30T00:50:54;4.10;;;3.90;;
81378;SDS011;70830;42.290;-71.354;2024-01-30T00:53:20;4.10;;;3.90;;
81378;SDS011;70830;42.290;-71.354;2024-01-30T00:55:46;4.20;;;4.00;;
81378;SDS011;70830;42.290;-71.354;2024-01-30T00:58:12;4.35;;;4.15;;
81378;SDS011;70830;42.290;-71.354;2024-01-30T01:00:38;4.20;;;4.00;;
81378;SDS011;70830;42.290;-71.354;2024-01-30T01:03:04;4.30;;;4.10;;
81378;SDS011;70830;42.290;-71.354;2024-01-30T01:05:30;4.20;;;4.00;;
81378;SDS011;70830;42.290;-71.354;2024-01-30T01:07:56;4.30;;;4.10;;
81378;SDS011;70830;42.290;-71.354;2024-01-30T01:10:22;4.20;;;4.00;;
81378;SDS011;70830;42.290;-71.354;2024-01-30T01:12:48;4.30;;;4.10;;
81378;SDS011;70830;42.290;-71.354;2024-01-30T01:15:14;4.50;;;4.30;;
81378;SDS011;70830;42.290;-71.354;2024-01-30T01:17:40;4.40;;;4.20;;
81378;SDS011;70830;42.290;-71.354;2024-01-30T01:20:07;4.50;;;4.30;;
81378;SDS011;70830;42.290;-71.354;2024-01-30T01:22:34;4.35;;;4.15;;
81378;SDS011;70830;42.290;-71.354;2024-01-30T01:25:00;4.40;;;4.20;;
81378;SDS011;70830;42.290;-71.354;2024-01-30T01:27:26;4.20;;;4.00;;
81378;SDS011;70830;42.290;-71.354;2024-01-30T01:29:52;6.35;;;5.95;;
81378;SDS011;70830;42.290;-71.354;2024-01-30T01:32:19;4.40;;;4.20;;
81378;SDS011;70830;42.290;-71.354;2024-01-30T01:34:45;4.30;;;4.10;;
81378;SDS011;70830;42.290;-71.354;2024-01-30T01:37:11;4.28;;;4.07;;
81378;SDS011;70830;42.290;-71.354;2024-01-30T01:39:37;4.30;;;4.10;;
81378;SDS011;70830;42.290;-71.354;2024-01-30T01:42:03;4.30;;;4.10;;
81378;SDS011;70830;42.290;-71.354;2024-01-30T01:44:29;4.35;;;4.15;;
81378;SDS011;70830;42.290;-71.354;2024-01-30T01:46:55;4.40;;;4.20;;
81378;SDS011;70830;42.290;-71.354;2024-01-30T01:49:24;4.30;;;4.10;;
81378;SDS011;70830;42.290;-71.354;2024-01-30T01:51:53;4.30;;;4.10;;
81378;SDS011;70830;42.290;-71.354;2024-01-30T01:54:21;4.60;;;4.40;;
81378;SDS011;70830;42.290;-71.354;2024-01-30T01:56:49;4.40;;;4.20;;
81378;SDS011;70830;42.290;-71.354;2024-01-30T01:59:16;4.50;;;4.30;;
81378;SDS011;70830;42.290;-71.354;2024-01-30T02:01:43;4.30;;;4.10;;
81378;SDS011;70830;42.290;-71.354;2024-01-30T02:04:11;4.40;;;4.20;;
81378;SDS011;70830;42.290;-71.354;2024-01-30T02:06:37;4.35;;;4.15;;
81378;SDS011;70830;42.290;-71.354;2024-01-30T02:09:04;4.47;;;4.28;;
81378;SDS011;70830;42.290;-71.354;2024-01-30T02:11:30;4.50;;;4.30;;
81378;SDS011;70830;42.290;-71.354;2024-01-30T02:13:57;4.57;;;4.38;;
81378;SDS011;70830;42.290;-71.354;2024-01-30T02:16:27;4.47;;;4.28;;
81378;SDS011;70830;42.290;-71.354;2024-01-30T02:18:53;4.50;;;4.30;;
81378;SDS011;70830;42.290;-71.354;2024-01-30T02:21:19;4.70;;;4.50;;
81378;SDS011;70830;42.290;-71.354;2024-01-30T02:23:46;4.60;;;4.40;;
81378;SDS011;70830;42.290;-71.354;2024-01-30T02:26:13;4.30;;;4.10;;
81378;SDS011;70830;42.290;-71.354;2024-01-30T02:28:40;4.22;;;4.03;;
81378;SDS011;70830;42.290;-71.354;2024-01-30T02:31:05;4.30;;;4.10;;
81378;SDS011;70830;42.290;-71.354;2024-01-30T02:33:31;4.40;;;4.20;;
81378;SDS011;70830;42.290;-71.354;2024-01-30T02:35:57;4.30;;;4.10;;
81378;SDS011;70830;42.290;-71.354;2024-01-30T02:38:24;4.40;;;4.20;;
81378;SDS011;70830;42.290;-71.354;2024-01-30T02:40:52;4.30;;;4.10;;
81378;SDS011;70830;42.290;-71.354;2024-01-30T02:43:18;4.30;;;4.10;;
81378;SDS011;70830;42.290;-71.354;2024-01-30T02:45:44;4.28;;;4.07;;
81378;SDS011;70830;42.290;-71.354;2024-01-30T02:48:10;4.43;;;4.22;;
81378;SDS011;70830;42.290;-71.354;2024-01-30T02:50:36;4.50;;;4.30;;
81378;SDS011;70830;42.290;-71.354;2024-01-30T02:53:01;4.30;;;4.10;;
81378;SDS011;70830;42.290;-71.354;2024-01-30T02:55:27;4.20;;;4.00;;
81378;SDS011;70830;42.290;-71.354;2024-01-30T02:57:53;4.30;;;4.10;;
81378;SDS011;70830;42.290;-71.354;2024-01-30T03:00:19;4.43;;;4.22;;
81378;SDS011;70830;42.290;-71.354;2024-01-30T03:02:45;4.40;;;4.20;;
81378;SDS011;70830;42.290;-71.354;2024-01-30T03:05:12;4.32;;;4.13;;
81378;SDS011;70830;42.290;-71.354;2024-01-30T03:07:38;4.30;;;4.10;;
81378;SDS011;70830;42.290;-71.354;2024-01-30T03:10:04;4.30;;;4.10;;
81378;SDS011;70830;42.290;-71.354;2024-01-30T03:12:31;4.20;;;4.00;;
81378;SDS011;70830;42.290;-71.354;2024-01-30T03:14:57;4.50;;;4.30;;
81378;SDS011;70830;42.290;-71.354;2024-01-30T03:17:23;4.30;;;4.10;;
81378;SDS011;70830;42.290;-71.354;2024-01-30T03:19:49;4.38;;;4.18;;
81378;SDS011;70830;42.290;-71.354;2024-01-30T03:22:15;4.40;;;4.20;;
81378;SDS011;70830;42.290;-71.354;2024-01-30T03:24:42;4.40;;;4.20;;
81378;SDS011;70830;42.290;-71.354;2024-01-30T03:27:08;4.35;;;4.15;;
81378;SDS011;70830;42.290;-71.354;2024-01-30T03:29:34;4.60;;;4.40;;
81378;SDS011;70830;42.290;-71.354;2024-01-30T03:32:00;4.40;;;4.20;;
81378;SDS011;70830;42.290;-71.354;2024-01-30T03:34:26;4.30;;;4.10;;
81378;SDS011;70830;42.290;-71.354;2024-01-30T03:36:52;4.40;;;4.20;;
81378;SDS011;70830;42.290;-71.354;2024-01-30T03:39:18;4.35;;;4.15;;
81378;SDS011;70830;42.290;-71.354;2024-01-30T03:41:44;4.50;;;4.30;;
81378;SDS011;70830;42.290;-71.354;2024-01-30T03:44:10;4.50;;;4.30;;
81378;SDS011;70830;42.290;-71.354;2024-01-30T03:46:36;4.50;;;4.30;;
81378;SDS011;70830;42.290;-71.354;2024-01-30T03:49:02;4.35;;;4.15;;
81378;SDS011;70830;42.290;-71.354;2024-01-30T03:51:28;4.32;;;4.13;;
81378;SDS011;70830;42.290;-71.354;2024-01-30T03:53:54;4.47;;;4.28;;
81378;SDS011;70830;42.290;-71.354;2024-01-30T03:56:20;4.38;;;4.18;;
81378;SDS011;70830;42.290;-71.354;2024-01-30T03:58:46;4.50;;;4.30;;
81378;SDS011;70830;42.290;-71.354;2024-01-30T04:01:15;4.35;;;4.15;;
81378;SDS011;70830;42.290;-71.354;2024-01-30T04:03:41;4.40;;;4.20;;
81378;SDS011;70830;42.290;-71.354;2024-01-30T04:06:09;4.38;;;4.18;;
81378;SDS011;70830;42.290;-71.354;2024-01-30T04:08:36;4.40;;;4.20;;
81378;SDS011;70830;42.290;-71.354;2024-01-30T04:11:05;4.70;;;4.50;;
81378;SDS011;70830;42.290;-71.354;2024-01-30T04:13:32;4.70;;;4.50;;
81378;SDS011;70830;42.290;-71.354;2024-01-30T04:16:01;4.40;;;4.20;;
81378;SDS011;70830;42.290;-71.354;2024-01-30T04:18:28;4.50;;;4.30;;
81378;SDS011;70830;42.290;-71.354;2024-01-30T04:20:54;4.45;;;4.25;;
81378;SDS011;70830;42.290;-71.354;2024-01-30T04:23:20;4.47;;;4.28;;
81378;SDS011;70830;42.290;-71.354;2024-01-30T04:25:46;4.40;;;4.20;;
81378;SDS011;70830;42.290;-71.354;2024-01-30T04:28:12;4.60;;;4.40;;
81378;SDS011;70830;42.290;-71.354;2024-01-30T04:30:38;4.30;;;4.10;;
81378;SDS011;70830;42.290;-71.354;2024-01-30T04:33:04;4.40;;;4.20;;
81378;SDS011;70830;42.290;-71.354;2024-01-30T04:35:30;4.30;;;4.10;;
81378;SDS011;70830;42.290;-71.354;2024-01-30T04:37:56;4.32;;;4.13;;
81378;SDS011;70830;42.290;-71.354;2024-01-30T04:40:22;4.30;;;4.10;;
81378;SDS011;70830;42.290;-71.354;2024-01-30T04:42:48;4.15;;;3.95;;
81378;SDS011;70830;42.290;-71.354;2024-01-30T04:45:14;4.40;;;4.20;;
81378;SDS011;70830;42.290;-71.354;2024-01-30T04:47:40;4.30;;;4.10;;
81378;SDS011;70830;42.290;-71.354;2024-01-30T04:50:06;4.22;;;4.03;;
81378;SDS011;70830;42.290;-71.354;2024-01-30T04:52:33;4.40;;;4.20;;
81378;SDS011;70830;42.290;-71.354;2024-01-30T04:54:59;4.30;;;4.10;;
81378;SDS011;70830;42.290;-71.354;2024-01-30T04:57:25;4.20;;;4.00;;
81378;SDS011;70830;42.290;-71.354;2024-01-30T04:59:51;4.30;;;4.10;;
81378;SDS011;70830;42.290;-71.354;2024-01-30T05:02:17;4.20;;;4.00;;
81378;SDS011;70830;42.290;-71.354;2024-01-30T05:04:43;4.30;;;4.10;;
81378;SDS011;70830;42.290;-71.354;2024-01-30T05:07:09;4.28;;;4.07;;
81378;SDS011;70830;42.290;-71.354;2024-01-30T05:09:35;4.30;;;4.10;;
81378;SDS011;70830;42.290;-71.354;2024-01-30T05:12:01;4.10;;;3.90;;
81378;SDS011;70830;42.290;-71.354;2024-01-30T05:14:27;4.10;;;3.90;;
81378;SDS011;70830;42.290;-71.354;2024-01-30T05:16:53;4.00;;;3.80;;
81378;SDS011;70830;42.290;-71.354;2024-01-30T05:19:18;4.20;;;4.00;;
81378;SDS011;70830;42.290;-71.354;2024-01-30T05:21:45;4.40;;;4.20;;
81378;SDS011;70830;42.290;-71.354;2024-01-30T05:24:11;4.20;;;4.00;;
81378;SDS011;70830;42.290;-71.354;2024-01-30T05:26:37;4.10;;;3.90;;
81378;SDS011;70830;42.290;-71.354;2024-01-30T05:29:04;4.10;;;3.90;;
81378;SDS011;70830;42.290;-71.354;2024-01-30T05:31:30;3.92;;;3.72;;
81378;SDS011;70830;42.290;-71.354;2024-01-30T05:33:56;4.00;;;3.80;;
81378;SDS011;70830;42.290;-71.354;2024-01-30T05:36:22;4.18;;;3.97;;
81378;SDS011;70830;42.290;-71.354;2024-01-30T05:38:48;4.20;;;4.00;;
81378;SDS011;70830;42.290;-71.354;2024-01-30T05:41:14;4.15;;;3.95;;
81378;SDS011;70830;42.290;-71.354;2024-01-30T05:43:40;4.20;;;4.00;;
81378;SDS011;70830;42.290;-71.354;2024-01-30T05:46:09;4.00;;;3.80;;
81378;SDS011;70830;42.290;-71.354;2024-01-30T05:48:34;4.20;;;4.00;;
81378;SDS011;70830;42.290;-71.354;2024-01-30T05:51:01;4.20;;;4.00;;
81378;SDS011;70830;42.290;-71.354;2024-01-30T05:53:28;4.10;;;3.90;;
81378;SDS011;70830;42.290;-71.354;2024-01-30T05:55:54;4.10;;;3.90;;
81378;SDS011;70830;42.290;-71.354;2024-01-30T05:58:20;4.10;;;3.90;;
81378;SDS011;70830;42.290;-71.354;2024-01-30T06:00:47;3.80;;;3.60;;
81378;SDS011;70830;42.290;-71.354;2024-01-30T06:03:13;4.20;;;4.00;;
81378;SDS011;70830;42.290;-71.354;2024-01-30T06:05:39;4.32;;;4.13;;
81378;SDS011;70830;42.290;-71.354;2024-01-30T06:08:05;4.30;;;4.10;;
81378;SDS011;70830;42.290;-71.354;2024-01-30T06:10:31;4.10;;;3.90;;
81378;SDS011;70830;42.290;-71.354;2024-01-30T06:12:57;4.20;;;4.00;;
81378;SDS011;70830;42.290;-71.354;2024-01-30T06:15:23;4.10;;;3.90;;
81378;SDS011;70830;42.290;-71.354;2024-01-30T06:17:49;4.10;;;3.90;;
81378;SDS011;70830;42.290;-71.354;2024-01-30T06:20:15;4.25;;;4.05;;
81378;SDS011;70830;42.290;-71.354;2024-01-30T06:22:41;4.20;;;4.00;;
81378;SDS011;70830;42.290;-71.354;2024-01-30T06:25:07;4.30;;;4.10;;
81378;SDS011;70830;42.290;-71.354;2024-01-30T06:27:33;4.20;;;4.00;;
81378;SDS011;70830;42.290;-71.354;2024-01-30T06:29:59;4.30;;;4.10;;
81378;SDS011;70830;42.290;-71.354;2024-01-30T06:32:25;4.30;;;4.10;;
81378;SDS011;70830;42.290;-71.354;2024-01-30T06:34:50;4.30;;;4.10;;
81378;SDS011;70830;42.290;-71.354;2024-01-30T06:37:16;4.20;;;4.00;;
81378;SDS011;70830;42.290;-71.354;2024-01-30T06:39:42;4.20;;;4.00;;
81378;SDS011;70830;42.290;-71.354;2024-01-30T06:42:09;4.10;;;3.90;;
81378;SDS011;70830;42.290;-71.354;2024-01-30T06:44:36;4.20;;;4.00;;
81378;SDS011;70830;42.290;-71.354;2024-01-30T06:47:02;4.30;;;4.10;;
81378;SDS011;70830;42.290;-71.354;2024-01-30T06:49:28;4.28;;;4.07;;
81378;SDS011;70830;42.290;-71.354;2024-01-30T06:51:54;4.13;;;3.92;;
81378;SDS011;70830;42.290;-71.354;2024-01-30T06:54:20;4.10;;;3.90;;
81378;SDS011;70830;42.290;-71.354;2024-01-30T06:56:46;4.30;;;4.10;;
81378;SDS011;70830;42.290;-71.354;2024-01-30T06:59:11;4.40;;;4.20;;
81378;SDS011;70830;42.290;-71.354;2024-01-30T07:01:37;4.20;;;4.00;;
81378;SDS011;70830;42.290;-71.354;2024-01-30T07:04:03;4.20;;;4.00;;
81378;SDS011;70830;42.290;-71.354;2024-01-30T07:06:29;4.20;;;4.00;;
81378;SDS011;70830;42.290;-71.354;2024-01-30T07:08:55;4.30;;;4.10;;
81378;SDS011;70830;42.290;-71.354;2024-01-30T07:11:21;4.32;;;4.13;;
81378;SDS011;70830;42.290;-71.354;2024-01-30T07:13:50;4.30;;;4.10;;
81378;SDS011;70830;42.290;-71.354;2024-01-30T07:16:16;4.30;;;4.10;;
81378;SDS011;70830;42.290;-71.354;2024-01-30T07:18:43;4.30;;;4.10;;
81378;SDS011;70830;42.290;-71.354;2024-01-30T07:21:09;4.18;;;3.97;;
81378;SDS011;70830;42.290;-71.354;2024-01-30T07:23:35;4.25;;;4.05;;
81378;SDS011;70830;42.290;-71.354;2024-01-30T07:26:04;4.32;;;4.13;;
81378;SDS011;70830;42.290;-71.354;2024-01-30T07:28:31;4.20;;;4.00;;
81378;SDS011;70830;42.290;-71.354;2024-01-30T07:30:58;4.22;;;4.03;;
81378;SDS011;70830;42.290;-71.354;2024-01-30T07:33:24;4.15;;;3.95;;
81378;SDS011;70830;42.290;-71.354;2024-01-30T07:35:51;4.20;;;4.00;;
81378;SDS011;70830;42.290;-71.354;2024-01-30T07:38:18;4.40;;;4.20;;
81378;SDS011;70830;42.290;-71.354;2024-01-30T07:40:45;4.43;;;4.22;;
81378;SDS011;70830;42.290;-71.354;2024-01-30T07:43:11;4.20;;;4.00;;
81378;SDS011;70830;42.290;-71.354;2024-01-30T07:45:37;4.20;;;4.00;;
81378;SDS011;70830;42.290;-71.354;2024-01-30T07:48:04;3.80;;;3.60;;
81378;SDS011;70830;42.290;-71.354;2024-01-30T07:50:31;3.70;;;3.50;;
81378;SDS011;70830;42.290;-71.354;2024-01-30T07:52:59;3.70;;;3.50;;
81378;SDS011;70830;42.290;-71.354;2024-01-30T07:55:25;3.70;;;3.50;;
81378;SDS011;70830;42.290;-71.354;2024-01-30T07:57:54;3.70;;;3.50;;
81378;SDS011;70830;42.290;-71.354;2024-01-30T08:00:21;3.80;;;3.60;;
81378;SDS011;70830;42.290;-71.354;2024-01-30T08:02:47;3.80;;;3.60;;
81378;SDS011;70830;42.290;-71.354;2024-01-30T08:05:13;3.80;;;3.60;;
81378;SDS011;70830;42.290;-71.354;2024-01-30T08:07:43;3.90;;;3.70;;
81378;SDS011;70830;42.290;-71.354;2024-01-30T08:10:11;3.90;;;3.70;;
81378;SDS011;70830;42.290;-71.354;2024-01-30T08:12:38;3.80;;;3.60;;
81378;SDS011;70830;42.290;-71.354;2024-01-30T08:15:04;3.80;;;3.60;;
81378;SDS011;70830;42.290;-71.354;2024-01-30T08:17:31;3.70;;;3.50;;
81378;SDS011;70830;42.290;-71.354;2024-01-30T08:19:57;3.80;;;3.60;;
81378;SDS011;70830;42.290;-71.354;2024-01-30T08:22:23;3.80;;;3.60;;
81378;SDS011;70830;42.290;-71.354;2024-01-30T08:24:48;3.80;;;3.60;;
81378;SDS011;70830;42.290;-71.354;2024-01-30T08:27:14;4.30;;;4.10;;
81378;SDS011;70830;42.290;-71.354;2024-01-30T08:29:41;4.50;;;4.30;;
81378;SDS011;70830;42.290;-71.354;2024-01-30T08:32:07;4.30;;;4.10;;
81378;SDS011;70830;42.290;-71.354;2024-01-30T08:34:33;4.50;;;4.30;;
81378;SDS011;70830;42.290;-71.354;2024-01-30T08:36:59;4.35;;;4.15;;
81378;SDS011;70830;42.290;-71.354;2024-01-30T08:39:25;4.50;;;4.30;;
81378;SDS011;70830;42.290;-71.354;2024-01-30T08:41:51;4.40;;;4.20;;
81378;SDS011;70830;42.290;-71.354;2024-01-30T08:44:17;4.32;;;4.13;;
81378;SDS011;70830;42.290;-71.354;2024-01-30T08:46:46;4.40;;;4.20;;
81378;SDS011;70830;42.290;-71.354;2024-01-30T08:49:13;4.50;;;4.30;;
81378;SDS011;70830;42.290;-71.354;2024-01-30T08:51:39;4.50;;;4.30;;
81378;SDS011;70830;42.290;-71.354;2024-01-30T08:54:05;4.50;;;4.30;;
81378;SDS011;70830;42.290;-71.354;2024-01-30T08:56:31;4.40;;;4.20;;
81378;SDS011;70830;42.290;-71.354;2024-01-30T08:58:57;4.30;;;4.10;;
81378;SDS011;70830;42.290;-71.354;2024-01-30T09:01:23;4.53;;;4.32;;
81378;SDS011;70830;42.290;-71.354;2024-01-30T09:03:51;4.50;;;4.30;;
81378;SDS011;70830;42.290;-71.354;2024-01-30T09:06:17;4.30;;;4.10;;
81378;SDS011;70830;42.290;-71.354;2024-01-30T09:08:43;4.60;;;4.40;;
81378;SDS011;70830;42.290;-71.354;2024-01-30T09:11:12;4.40;;;4.20;;
81378;SDS011;70830;42.290;-71.354;2024-01-30T09:13:39;4.30;;;4.10;;
81378;SDS011;70830;42.290;-71.354;2024-01-30T09:16:05;4.50;;;4.30;;
81378;SDS011;70830;42.290;-71.354;2024-01-30T09:18:31;4.60;;;4.40;;
81378;SDS011;70830;42.290;-71.354;2024-01-30T09:20:57;4.38;;;4.18;;
81378;SDS011;70830;42.290;-71.354;2024-01-30T09:23:24;4.50;;;4.30;;
81378;SDS011;70830;42.290;-71.354;2024-01-30T09:25:50;4.40;;;4.20;;
81378;SDS011;70830;42.290;-71.354;2024-01-30T09:28:19;4.50;;;4.30;;
81378;SDS011;70830;42.290;-71.354;2024-01-30T09:30:45;4.70;;;4.50;;
81378;SDS011;70830;42.290;-71.354;2024-01-30T09:33:11;4.70;;;4.50;;
81378;SDS011;70830;42.290;-71.354;2024-01-30T09:35:37;4.70;;;4.50;;
81378;SDS011;70830;42.290;-71.354;2024-01-30T09:38:03;4.70;;;4.50;;
81378;SDS011;70830;42.290;-71.354;2024-01-30T09:40:29;4.40;;;4.20;;
81378;SDS011;70830;42.290;-71.354;2024-01-30T09:42:55;4.65;;;4.45;;
81378;SDS011;70830;42.290;-71.354;2024-01-30T09:45:25;4.70;;;4.50;;
81378;SDS011;70830;42.290;-71.354;2024-01-30T09:47:52;4.60;;;4.40;;
81378;SDS011;70830;42.290;-71.354;2024-01-30T09:50:19;4.53;;;4.32;;
81378;SDS011;70830;42.290;-71.354;2024-01-30T09:52:45;4.45;;;4.25;;
81378;SDS011;70830;42.290;-71.354;2024-01-30T09:55:12;4.55;;;4.35;;
81378;SDS011;70830;42.290;-71.354;2024-01-30T09:57:38;5.43;;;5.13;;
81378;SDS011;70830;42.290;-71.354;2024-01-30T10:00:05;4.80;;;4.60;;
81378;SDS011;70830;42.290;-71.354;2024-01-30T10:02:35;4.50;;;4.30;;
81378;SDS011;70830;42.290;-71.354;2024-01-30T10:05:01;4.40;;;4.20;;
81378;SDS011;70830;42.290;-71.354;2024-01-30T10:07:27;4.30;;;4.10;;
81378;SDS011;70830;42.290;-71.354;2024-01-30T10:09:53;4.13;;;3.92;;
81378;SDS011;70830;42.290;-71.354;2024-01-30T10:12:22;4.40;;;4.20;;
81378;SDS011;70830;42.290;-71.354;2024-01-30T10:14:55;4.38;;;4.18;;
81378;SDS011;70830;42.290;-71.354;2024-01-30T10:17:24;4.30;;;4.10;;
81378;SDS011;70830;42.290;-71.354;2024-01-30T10:19:52;4.30;;;4.10;;
81378;SDS011;70830;42.290;-71.354;2024-01-30T10:22:18;4.40;;;4.20;;
81378;SDS011;70830;42.290;-71.354;2024-01-30T10:24:45;4.40;;;4.20;;
81378;SDS011;70830;42.290;-71.354;2024-01-30T10:27:11;4.35;;;4.15;;
81378;SDS011;70830;42.290;-71.354;2024-01-30T10:29:37;4.40;;;4.20;;
81378;SDS011;70830;42.290;-71.354;2024-01-30T10:32:03;4.50;;;4.30;;
81378;SDS011;70830;42.290;-71.354;2024-01-30T10:34:30;4.30;;;4.10;;
81378;SDS011;70830;42.290;-71.354;2024-01-30T10:37:10;4.40;;;4.20;;
81378;SDS011;70830;42.290;-71.354;2024-01-30T10:39:43;4.40;;;4.20;;
81378;SDS011;70830;42.290;-71.354;2024-01-30T10:42:13;4.50;;;4.30;;
81378;SDS011;70830;42.290;-71.354;2024-01-30T10:47:26;4.40;;;4.20;;
81378;SDS011;70830;42.290;-71.354;2024-01-30T10:49:54;4.40;;;4.20;;
81378;SDS011;70830;42.290;-71.354;2024-01-30T10:52:22;4.40;;;4.20;;
81378;SDS011;70830;42.290;-71.354;2024-01-30T10:54:53;4.40;;;4.20;;
81378;SDS011;70830;42.290;-71.354;2024-01-30T10:57:20;4.50;;;4.30;;
81378;SDS011;70830;42.290;-71.354;2024-01-30T10:59:51;4.35;;;4.15;;
81378;SDS011;70830;42.290;-71.354;2024-01-30T11:02:20;4.40;;;4.20;;
81378;SDS011;70830;42.290;-71.354;2024-01-30T11:04:49;4.50;;;4.30;;
81378;SDS011;70830;42.290;-71.354;2024-01-30T11:07:15;4.50;;;4.30;;
81378;SDS011;70830;42.290;-71.354;2024-01-30T11:10:07;4.45;;;4.25;;
81378;SDS011;70830;42.290;-71.354;2024-01-30T11:12:38;4.60;;;4.40;;
81378;SDS011;70830;42.290;-71.354;2024-01-30T11:17:49;4.45;;;4.25;;
81378;SDS011;70830;42.290;-71.354;2024-01-30T11:22:47;4.60;;;4.40;;
81378;SDS011;70830;42.290;-71.354;2024-01-30T11:25:15;4.22;;;4.03;;
81378;SDS011;70830;42.290;-71.354;2024-01-30T11:27:45;4.50;;;4.30;;
81378;SDS011;70830;42.290;-71.354;2024-01-30T11:30:27;4.20;;;4.00;;
81378;SDS011;70830;42.290;-71.354;2024-01-30T11:32:58;4.40;;;4.20;;
81378;SDS011;70830;42.290;-71.354;2024-01-30T11:35:34;4.40;;;4.20;;
81378;SDS011;70830;42.290;-71.354;2024-01-30T11:38:01;4.40;;;4.20;;
81378;SDS011;70830;42.290;-71.354;2024-01-30T11:40:29;4.30;;;4.10;;
81378;SDS011;70830;42.290;-71.354;2024-01-30T11:42:58;4.50;;;4.30;;
81378;SDS011;70830;42.290;-71.354;2024-01-30T11:45:25;4.60;;;4.40;;
81378;SDS011;70830;42.290;-71.354;2024-01-30T11:47:54;4.65;;;4.45;;
81378;SDS011;70830;42.290;-71.354;2024-01-30T11:50:20;4.35;;;4.15;;
81378;SDS011;70830;42.290;-71.354;2024-01-30T11:52:49;3.90;;;3.70;;
81378;SDS011;70830;42.290;-71.354;2024-01-30T11:55:15;4.60;;;4.40;;
81378;SDS011;70830;42.290;-71.354;2024-01-30T11:57:42;4.40;;;4.20;;
81378;SDS011;70830;42.290;-71.354;2024-01-30T12:00:15;4.50;;;4.30;;
81378;SDS011;70830;42.290;-71.354;2024-01-30T12:02:42;4.28;;;4.07;;
81378;SDS011;70830;42.290;-71.354;2024-01-30T12:05:08;4.10;;;3.90;;
81378;SDS011;70830;42.290;-71.354;2024-01-30T12:07:35;3.90;;;3.70;;
81378;SDS011;70830;42.290;-71.354;2024-01-30T12:10:01;3.47;;;3.38;;
81378;SDS011;70830;42.290;-71.354;2024-01-30T12:12:28;3.28;;;3.17;;
81378;SDS011;70830;42.290;-71.354;2024-01-30T12:14:55;3.40;;;3.30;;
81378;SDS011;70830;42.290;-71.354;2024-01-30T12:20:04;3.40;;;3.30;;
81378;SDS011;70830;42.290;-71.354;2024-01-30T12:22:35;3.28;;;3.17;;
81378;SDS011;70830;42.290;-71.354;2024-01-30T12:25:04;3.40;;;3.30;;
81378;SDS011;70830;42.290;-71.354;2024-01-30T12:27:34;3.60;;;3.40;;
81378;SDS011;70830;42.290;-71.354;2024-01-30T12:30:00;3.40;;;3.30;;
81378;SDS011;70830;42.290;-71.354;2024-01-30T12:32:26;3.80;;;3.60;;
81378;SDS011;70830;42.290;-71.354;2024-01-30T12:34:55;3.47;;;3.33;;
81378;SDS011;70830;42.290;-71.354;2024-01-30T12:37:22;3.70;;;3.50;;
81378;SDS011;70830;42.290;-71.354;2024-01-30T12:39:52;3.63;;;3.42;;
81378;SDS011;70830;42.290;-71.354;2024-01-30T12:42:19;3.90;;;3.70;;
81378;SDS011;70830;42.290;-71.354;2024-01-30T12:44:49;4.10;;;3.90;;
81378;SDS011;70830;42.290;-71.354;2024-01-30T12:47:15;4.00;;;3.80;;
81378;SDS011;70830;42.290;-71.354;2024-01-30T12:49:44;4.10;;;3.90;;
81378;SDS011;70830;42.290;-71.354;2024-01-30T12:52:11;4.20;;;4.00;;
81378;SDS011;70830;42.290;-71.354;2024-01-30T12:54:38;4.10;;;3.90;;
81378;SDS011;70830;42.290;-71.354;2024-01-30T12:57:04;4.00;;;3.80;;
81378;SDS011;70830;42.290;-71.354;2024-01-30T12:59:31;3.97;;;3.78;;
81378;SDS011;70830;42.290;-71.354;2024-01-30T13:01:58;3.80;;;3.60;;
81378;SDS011;70830;42.290;-71.354;2024-01-30T13:04:25;4.07;;;3.88;;
81378;SDS011;70830;42.290;-71.354;2024-01-30T13:06:52;4.00;;;3.80;;
81378;SDS011;70830;42.290;-71.354;2024-01-30T13:09:18;4.20;;;4.00;;
81378;SDS011;70830;42.290;-71.354;2024-01-30T13:11:44;3.97;;;3.78;;
81378;SDS011;70830;42.290;-71.354;2024-01-30T13:14:09;3.85;;;3.65;;
81378;SDS011;70830;42.290;-71.354;2024-01-30T13:16:35;4.00;;;3.80;;
81378;SDS011;70830;42.290;-71.354;2024-01-30T13:19:02;4.10;;;3.90;;
81378;SDS011;70830;42.290;-71.354;2024-01-30T13:21:28;3.90;;;3.70;;
81378;SDS011;70830;42.290;-71.354;2024-01-30T13:23:54;4.10;;;3.90;;
81378;SDS011;70830;42.290;-71.354;2024-01-30T13:26:20;3.90;;;3.70;;
81378;SDS011;70830;42.290;-71.354;2024-01-30T13:28:47;4.00;;;3.80;;
81378;SDS011;70830;42.290;-71.354;2024-01-30T13:31:16;3.95;;;3.75;;
81378;SDS011;70830;42.290;-71.354;2024-01-30T13:33:42;3.80;;;3.60;;
81378;SDS011;70830;42.290;-71.354;2024-01-30T13:36:08;3.80;;;3.60;;
81378;SDS011;70830;42.290;-71.354;2024-01-30T13:38:35;3.80;;;3.60;;
81378;SDS011;70830;42.290;-71.354;2024-01-30T13:41:01;3.85;;;3.65;;
81378;SDS011;70830;42.290;-71.354;2024-01-30T13:43:27;3.80;;;3.60;;
81378;SDS011;70830;42.290;-71.354;2024-01-30T13:45:54;3.70;;;3.50;;
81378;SDS011;70830;42.290;-71.354;2024-01-30T13:48:20;3.47;;;3.38;;
81378;SDS011;70830;42.290;-71.354;2024-01-30T13:50:46;3.72;;;3.53;;
81378;SDS011;70830;42.290;-71.354;2024-01-30T13:53:13;3.58;;;3.40;;
81378;SDS011;70830;42.290;-71.354;2024-01-30T13:55:39;3.80;;;3.60;;
81378;SDS011;70830;42.290;-71.354;2024-01-30T13:58:05;3.88;;;3.67;;
81378;SDS011;70830;42.290;-71.354;2024-01-30T14:00:32;3.60;;;3.40;;
81378;SDS011;70830;42.290;-71.354;2024-01-30T14:02:59;3.10;;;3.00;;
81378;SDS011;70830;42.290;-71.354;2024-01-30T14:05:25;3.03;;;2.92;;
81378;SDS011;70830;42.290;-71.354;2024-01-30T14:07:54;3.10;;;3.00;;
81378;SDS011;70830;42.290;-71.354;2024-01-30T14:10:22;3.33;;;3.22;;
81378;SDS011;70830;42.290;-71.354;2024-01-30T14:12:48;3.55;;;3.38;;
81378;SDS011;70830;42.290;-71.354;2024-01-30T14:15:14;3.30;;;3.20;;
81378;SDS011;70830;42.290;-71.354;2024-01-30T14:17:43;3.33;;;3.22;;
81378;SDS011;70830;42.290;-71.354;2024-01-30T14:20:10;3.15;;;3.05;;
81378;SDS011;70830;42.290;-71.354;2024-01-30T14:22:36;3.20;;;3.10;;
81378;SDS011;70830;42.290;-71.354;2024-01-30T14:25:02;3.10;;;3.00;;
81378;SDS011;70830;42.290;-71.354;2024-01-30T14:27:29;3.10;;;3.00;;
81378;SDS011;70830;42.290;-71.354;2024-01-30T14:29:56;2.97;;;2.88;;